Hiles, Wisconsin
Current Conditions -  °F | °C
As of 3:15 AM on Monday 20 Oct 2014 (Local Time) from KEGV Reporting Station
Overcast Overcast  
Wind Chill: 39°   Ceiling: 3700
Heat Index: 39°   Visibility: 10mi
Dew Point: 39°   Wind: 0mph
Humidity: 100%   Direction: NA
Pressure: 29.77"   Gusts: NA
Location:  45.724°N, 88.8585°W
Report Text: KEGV 200815Z AUTO 00000KT 10SM OVC037 04/04 A2977 RMK AO2 T00370037
Loading
Personal Weather Stations






























Interactive Weather Map
Tropical Storm Tracking
New forecast layout! Learn more

10-Day Weather Forecast

Advertisements
Track Severe Weather on mobile